sensor_id;sensor_type;location;lat;lon;timestamp;P1;durP1;ratioP1;P2;durP2;ratioP2
20842;SDS011;26719;51.440;-2.574;2023-06-22T00:00:40;0.00;;;0.00;;
20842;SDS011;26719;51.440;-2.574;2023-06-22T00:03:07;0.00;;;0.00;;
20842;SDS011;26719;51.440;-2.574;2023-06-22T00:05:33;0.00;;;0.00;;
20842;SDS011;26719;51.440;-2.574;2023-06-22T00:08:02;0.00;;;0.00;;
20842;SDS011;26719;51.440;-2.574;2023-06-22T00:10:28;0.00;;;0.00;;
20842;SDS011;26719;51.440;-2.574;2023-06-22T00:12:54;0.00;;;0.00;;
20842;SDS011;26719;51.440;-2.574;2023-06-22T00:15:20;0.00;;;0.00;;
20842;SDS011;26719;51.440;-2.574;2023-06-22T00:17:46;0.00;;;0.00;;
20842;SDS011;26719;51.440;-2.574;2023-06-22T00:20:12;0.00;;;0.00;;
20842;SDS011;26719;51.440;-2.574;2023-06-22T00:22:39;0.00;;;0.00;;
20842;SDS011;26719;51.440;-2.574;2023-06-22T00:25:08;0.00;;;0.00;;
20842;SDS011;26719;51.440;-2.574;2023-06-22T00:27:35;0.00;;;0.00;;
20842;SDS011;26719;51.440;-2.574;2023-06-22T00:30:01;0.00;;;0.00;;
20842;SDS011;26719;51.440;-2.574;2023-06-22T00:32:27;0.00;;;0.00;;
20842;SDS011;26719;51.440;-2.574;2023-06-22T00:34:53;0.00;;;0.00;;
20842;SDS011;26719;51.440;-2.574;2023-06-22T00:37:19;0.00;;;0.00;;
20842;SDS011;26719;51.440;-2.574;2023-06-22T00:39:50;0.00;;;0.00;;
20842;SDS011;26719;51.440;-2.574;2023-06-22T00:42:16;0.00;;;0.00;;
20842;SDS011;26719;51.440;-2.574;2023-06-22T00:44:42;0.00;;;0.00;;
20842;SDS011;26719;51.440;-2.574;2023-06-22T00:47:10;0.00;;;0.00;;
20842;SDS011;26719;51.440;-2.574;2023-06-22T00:49:37;0.00;;;0.00;;
20842;SDS011;26719;51.440;-2.574;2023-06-22T00:52:03;0.00;;;0.00;;
20842;SDS011;26719;51.440;-2.574;2023-06-22T00:54:34;0.00;;;0.00;;
20842;SDS011;26719;51.440;-2.574;2023-06-22T00:57:01;0.00;;;0.00;;
20842;SDS011;26719;51.440;-2.574;2023-06-22T00:59:27;0.00;;;0.00;;
20842;SDS011;26719;51.440;-2.574;2023-06-22T01:01:53;0.00;;;0.00;;
20842;SDS011;26719;51.440;-2.574;2023-06-22T01:04:21;0.00;;;0.00;;
20842;SDS011;26719;51.440;-2.574;2023-06-22T01:06:52;0.00;;;0.00;;
20842;SDS011;26719;51.440;-2.574;2023-06-22T01:09:24;0.00;;;0.00;;
20842;SDS011;26719;51.440;-2.574;2023-06-22T01:11:57;0.00;;;0.00;;
20842;SDS011;26719;51.440;-2.574;2023-06-22T01:14:34;0.00;;;0.00;;
20842;SDS011;26719;51.440;-2.574;2023-06-22T01:17:02;0.00;;;0.00;;
20842;SDS011;26719;51.440;-2.574;2023-06-22T01:22:20;0.00;;;0.00;;
20842;SDS011;26719;51.440;-2.574;2023-06-22T01:30:16;0.00;;;0.00;;
20842;SDS011;26719;51.440;-2.574;2023-06-22T01:32:42;0.00;;;0.00;;
20842;SDS011;26719;51.440;-2.574;2023-06-22T01:35:08;0.00;;;0.00;;
20842;SDS011;26719;51.440;-2.574;2023-06-22T01:37:37;0.00;;;0.00;;
20842;SDS011;26719;51.440;-2.574;2023-06-22T01:40:04;0.00;;;0.00;;
20842;SDS011;26719;51.440;-2.574;2023-06-22T01:42:31;0.00;;;0.00;;
20842;SDS011;26719;51.440;-2.574;2023-06-22T01:44:57;0.00;;;0.00;;
20842;SDS011;26719;51.440;-2.574;2023-06-22T01:47:24;0.00;;;0.00;;
20842;SDS011;26719;51.440;-2.574;2023-06-22T01:49:50;0.00;;;0.00;;
20842;SDS011;26719;51.440;-2.574;2023-06-22T01:52:17;0.00;;;0.00;;
20842;SDS011;26719;51.440;-2.574;2023-06-22T01:54:44;0.00;;;0.00;;
20842;SDS011;26719;51.440;-2.574;2023-06-22T01:57:10;0.00;;;0.00;;
20842;SDS011;26719;51.440;-2.574;2023-06-22T02:02:07;0.00;;;0.00;;
20842;SDS011;26719;51.440;-2.574;2023-06-22T02:04:36;0.00;;;0.00;;
20842;SDS011;26719;51.440;-2.574;2023-06-22T02:07:05;0.00;;;0.00;;
20842;SDS011;26719;51.440;-2.574;2023-06-22T02:09:34;0.00;;;0.00;;
20842;SDS011;26719;51.440;-2.574;2023-06-22T02:12:00;0.00;;;0.00;;
20842;SDS011;26719;51.440;-2.574;2023-06-22T02:14:28;0.00;;;0.00;;
20842;SDS011;26719;51.440;-2.574;2023-06-22T02:16:54;0.00;;;0.00;;
20842;SDS011;26719;51.440;-2.574;2023-06-22T02:19:24;0.00;;;0.00;;
20842;SDS011;26719;51.440;-2.574;2023-06-22T02:21:50;0.00;;;0.00;;
20842;SDS011;26719;51.440;-2.574;2023-06-22T02:24:16;0.00;;;0.00;;
20842;SDS011;26719;51.440;-2.574;2023-06-22T02:26:43;0.00;;;0.00;;
20842;SDS011;26719;51.440;-2.574;2023-06-22T02:29:10;0.00;;;0.00;;
20842;SDS011;26719;51.440;-2.574;2023-06-22T02:31:36;0.00;;;0.00;;
20842;SDS011;26719;51.440;-2.574;2023-06-22T02:34:02;0.00;;;0.00;;
20842;SDS011;26719;51.440;-2.574;2023-06-22T02:36:28;0.00;;;0.00;;
20842;SDS011;26719;51.440;-2.574;2023-06-22T02:38:55;0.00;;;0.00;;
20842;SDS011;26719;51.440;-2.574;2023-06-22T02:41:25;0.00;;;0.00;;
20842;SDS011;26719;51.440;-2.574;2023-06-22T02:43:51;0.00;;;0.00;;
20842;SDS011;26719;51.440;-2.574;2023-06-22T02:46:17;0.00;;;0.00;;
20842;SDS011;26719;51.440;-2.574;2023-06-22T02:48:44;0.00;;;0.00;;
20842;SDS011;26719;51.440;-2.574;2023-06-22T02:51:10;0.00;;;0.00;;
20842;SDS011;26719;51.440;-2.574;2023-06-22T02:53:36;0.00;;;0.00;;
20842;SDS011;26719;51.440;-2.574;2023-06-22T02:56:02;0.00;;;0.00;;
20842;SDS011;26719;51.440;-2.574;2023-06-22T02:58:30;0.00;;;0.00;;
20842;SDS011;26719;51.440;-2.574;2023-06-22T03:01:04;0.00;;;0.00;;
20842;SDS011;26719;51.440;-2.574;2023-06-22T03:03:30;0.00;;;0.00;;
20842;SDS011;26719;51.440;-2.574;2023-06-22T03:05:56;0.00;;;0.00;;
20842;SDS011;26719;51.440;-2.574;2023-06-22T03:08:22;0.00;;;0.00;;
20842;SDS011;26719;51.440;-2.574;2023-06-22T03:10:48;0.00;;;0.00;;
20842;SDS011;26719;51.440;-2.574;2023-06-22T03:13:14;0.00;;;0.00;;
20842;SDS011;26719;51.440;-2.574;2023-06-22T03:15:40;0.00;;;0.00;;
20842;SDS011;26719;51.440;-2.574;2023-06-22T03:18:06;0.00;;;0.00;;
20842;SDS011;26719;51.440;-2.574;2023-06-22T03:20:32;0.00;;;0.00;;
20842;SDS011;26719;51.440;-2.574;2023-06-22T03:22:58;0.00;;;0.00;;
20842;SDS011;26719;51.440;-2.574;2023-06-22T03:25:25;0.00;;;0.00;;
20842;SDS011;26719;51.440;-2.574;2023-06-22T03:27:51;0.00;;;0.00;;
20842;SDS011;26719;51.440;-2.574;2023-06-22T03:30:17;0.00;;;0.00;;
20842;SDS011;26719;51.440;-2.574;2023-06-22T03:32:43;0.00;;;0.00;;
20842;SDS011;26719;51.440;-2.574;2023-06-22T03:35:09;0.00;;;0.00;;
20842;SDS011;26719;51.440;-2.574;2023-06-22T03:37:38;0.00;;;0.00;;
20842;SDS011;26719;51.440;-2.574;2023-06-22T03:40:04;0.00;;;0.00;;
20842;SDS011;26719;51.440;-2.574;2023-06-22T03:42:30;0.00;;;0.00;;
20842;SDS011;26719;51.440;-2.574;2023-06-22T03:44:56;0.00;;;0.00;;
20842;SDS011;26719;51.440;-2.574;2023-06-22T03:47:22;0.00;;;0.00;;
20842;SDS011;26719;51.440;-2.574;2023-06-22T03:49:48;0.00;;;0.00;;
20842;SDS011;26719;51.440;-2.574;2023-06-22T03:52:14;0.00;;;0.00;;
20842;SDS011;26719;51.440;-2.574;2023-06-22T03:54:40;0.00;;;0.00;;
20842;SDS011;26719;51.440;-2.574;2023-06-22T03:57:06;0.00;;;0.00;;
20842;SDS011;26719;51.440;-2.574;2023-06-22T03:59:32;0.00;;;0.00;;
20842;SDS011;26719;51.440;-2.574;2023-06-22T04:01:58;0.00;;;0.00;;
20842;SDS011;26719;51.440;-2.574;2023-06-22T04:04:25;0.00;;;0.00;;
20842;SDS011;26719;51.440;-2.574;2023-06-22T04:06:51;0.00;;;0.00;;
20842;SDS011;26719;51.440;-2.574;2023-06-22T04:09:17;0.00;;;0.00;;
20842;SDS011;26719;51.440;-2.574;2023-06-22T04:11:43;0.00;;;0.00;;
20842;SDS011;26719;51.440;-2.574;2023-06-22T04:14:09;0.00;;;0.00;;
20842;SDS011;26719;51.440;-2.574;2023-06-22T04:16:35;0.00;;;0.00;;
20842;SDS011;26719;51.440;-2.574;2023-06-22T04:19:01;0.00;;;0.00;;
20842;SDS011;26719;51.440;-2.574;2023-06-22T04:21:27;0.00;;;0.00;;
20842;SDS011;26719;51.440;-2.574;2023-06-22T04:23:53;0.00;;;0.00;;
20842;SDS011;26719;51.440;-2.574;2023-06-22T04:26:19;0.00;;;0.00;;
20842;SDS011;26719;51.440;-2.574;2023-06-22T04:28:48;0.00;;;0.00;;
20842;SDS011;26719;51.440;-2.574;2023-06-22T04:31:16;0.00;;;0.00;;
20842;SDS011;26719;51.440;-2.574;2023-06-22T04:33:44;0.00;;;0.00;;
20842;SDS011;26719;51.440;-2.574;2023-06-22T04:36:10;0.00;;;0.00;;
20842;SDS011;26719;51.440;-2.574;2023-06-22T04:38:38;0.00;;;0.00;;
20842;SDS011;26719;51.440;-2.574;2023-06-22T04:41:04;0.00;;;0.00;;
20842;SDS011;26719;51.440;-2.574;2023-06-22T04:43:31;0.00;;;0.00;;
20842;SDS011;26719;51.440;-2.574;2023-06-22T04:45:57;0.00;;;0.00;;
20842;SDS011;26719;51.440;-2.574;2023-06-22T04:48:31;0.00;;;0.00;;
20842;SDS011;26719;51.440;-2.574;2023-06-22T04:50:58;0.00;;;0.00;;
20842;SDS011;26719;51.440;-2.574;2023-06-22T04:53:28;0.00;;;0.00;;
20842;SDS011;26719;51.440;-2.574;2023-06-22T04:55:54;0.00;;;0.00;;
20842;SDS011;26719;51.440;-2.574;2023-06-22T04:58:21;0.00;;;0.00;;
20842;SDS011;26719;51.440;-2.574;2023-06-22T05:00:49;0.00;;;0.00;;
20842;SDS011;26719;51.440;-2.574;2023-06-22T05:03:16;0.00;;;0.00;;
20842;SDS011;26719;51.440;-2.574;2023-06-22T05:05:43;0.00;;;0.00;;
20842;SDS011;26719;51.440;-2.574;2023-06-22T05:08:09;0.00;;;0.00;;
20842;SDS011;26719;51.440;-2.574;2023-06-22T05:10:35;0.00;;;0.00;;
20842;SDS011;26719;51.440;-2.574;2023-06-22T05:13:01;0.00;;;0.00;;
20842;SDS011;26719;51.440;-2.574;2023-06-22T05:15:27;0.00;;;0.00;;
20842;SDS011;26719;51.440;-2.574;2023-06-22T05:17:55;0.00;;;0.00;;
20842;SDS011;26719;51.440;-2.574;2023-06-22T05:20:23;0.00;;;0.00;;
20842;SDS011;26719;51.440;-2.574;2023-06-22T05:22:49;0.00;;;0.00;;
20842;SDS011;26719;51.440;-2.574;2023-06-22T05:25:15;0.00;;;0.00;;
20842;SDS011;26719;51.440;-2.574;2023-06-22T05:27:41;0.00;;;0.00;;
20842;SDS011;26719;51.440;-2.574;2023-06-22T05:30:09;0.00;;;0.00;;
20842;SDS011;26719;51.440;-2.574;2023-06-22T05:32:36;0.00;;;0.00;;
20842;SDS011;26719;51.440;-2.574;2023-06-22T05:35:03;0.00;;;0.00;;
20842;SDS011;26719;51.440;-2.574;2023-06-22T05:37:29;0.00;;;0.00;;
20842;SDS011;26719;51.440;-2.574;2023-06-22T05:39:55;0.00;;;0.00;;
20842;SDS011;26719;51.440;-2.574;2023-06-22T05:42:22;0.00;;;0.00;;
20842;SDS011;26719;51.440;-2.574;2023-06-22T05:44:50;0.00;;;0.00;;
20842;SDS011;26719;51.440;-2.574;2023-06-22T05:47:16;0.00;;;0.00;;
20842;SDS011;26719;51.440;-2.574;2023-06-22T05:49:42;0.00;;;0.00;;
20842;SDS011;26719;51.440;-2.574;2023-06-22T05:52:08;0.00;;;0.00;;
20842;SDS011;26719;51.440;-2.574;2023-06-22T05:54:34;0.00;;;0.00;;
20842;SDS011;26719;51.440;-2.574;2023-06-22T05:57:00;0.00;;;0.00;;
20842;SDS011;26719;51.440;-2.574;2023-06-22T05:59:26;0.00;;;0.00;;
20842;SDS011;26719;51.440;-2.574;2023-06-22T06:01:53;0.00;;;0.00;;
20842;SDS011;26719;51.440;-2.574;2023-06-22T06:04:19;0.00;;;0.00;;
20842;SDS011;26719;51.440;-2.574;2023-06-22T06:06:45;0.00;;;0.00;;
20842;SDS011;26719;51.440;-2.574;2023-06-22T06:09:12;0.00;;;0.00;;
20842;SDS011;26719;51.440;-2.574;2023-06-22T06:11:38;0.00;;;0.00;;
20842;SDS011;26719;51.440;-2.574;2023-06-22T06:14:05;0.00;;;0.00;;
20842;SDS011;26719;51.440;-2.574;2023-06-22T06:16:31;0.00;;;0.00;;
20842;SDS011;26719;51.440;-2.574;2023-06-22T06:18:57;0.00;;;0.00;;
20842;SDS011;26719;51.440;-2.574;2023-06-22T06:21:23;0.00;;;0.00;;
20842;SDS011;26719;51.440;-2.574;2023-06-22T06:23:49;0.00;;;0.00;;
20842;SDS011;26719;51.440;-2.574;2023-06-22T06:26:15;0.00;;;0.00;;
20842;SDS011;26719;51.440;-2.574;2023-06-22T06:28:45;0.00;;;0.00;;
20842;SDS011;26719;51.440;-2.574;2023-06-22T06:31:11;0.00;;;0.00;;
20842;SDS011;26719;51.440;-2.574;2023-06-22T06:33:42;0.00;;;0.00;;
20842;SDS011;26719;51.440;-2.574;2023-06-22T06:36:08;0.00;;;0.00;;
20842;SDS011;26719;51.440;-2.574;2023-06-22T06:38:34;0.00;;;0.00;;
20842;SDS011;26719;51.440;-2.574;2023-06-22T06:41:00;0.00;;;0.00;;
20842;SDS011;26719;51.440;-2.574;2023-06-22T06:43:26;0.00;;;0.00;;
20842;SDS011;26719;51.440;-2.574;2023-06-22T06:45:52;0.00;;;0.00;;
20842;SDS011;26719;51.440;-2.574;2023-06-22T06:48:18;0.00;;;0.00;;
20842;SDS011;26719;51.440;-2.574;2023-06-22T06:50:44;0.00;;;0.00;;
20842;SDS011;26719;51.440;-2.574;2023-06-22T06:53:10;0.00;;;0.00;;
20842;SDS011;26719;51.440;-2.574;2023-06-22T06:55:36;0.00;;;0.00;;
20842;SDS011;26719;51.440;-2.574;2023-06-22T06:58:02;0.00;;;0.00;;
20842;SDS011;26719;51.440;-2.574;2023-06-22T07:00:33;0.00;;;0.00;;
20842;SDS011;26719;51.440;-2.574;2023-06-22T07:03:00;0.00;;;0.00;;
20842;SDS011;26719;51.440;-2.574;2023-06-22T07:05:27;0.00;;;0.00;;
20842;SDS011;26719;51.440;-2.574;2023-06-22T07:07:53;0.00;;;0.00;;
20842;SDS011;26719;51.440;-2.574;2023-06-22T07:10:19;0.00;;;0.00;;
20842;SDS011;26719;51.440;-2.574;2023-06-22T07:12:45;0.00;;;0.00;;
20842;SDS011;26719;51.440;-2.574;2023-06-22T07:15:11;0.00;;;0.00;;
20842;SDS011;26719;51.440;-2.574;2023-06-22T07:17:37;0.00;;;0.00;;
20842;SDS011;26719;51.440;-2.574;2023-06-22T07:20:06;0.00;;;0.00;;
20842;SDS011;26719;51.440;-2.574;2023-06-22T07:22:40;0.00;;;0.00;;
20842;SDS011;26719;51.440;-2.574;2023-06-22T07:25:07;0.00;;;0.00;;
20842;SDS011;26719;51.440;-2.574;2023-06-22T07:27:40;0.00;;;0.00;;
20842;SDS011;26719;51.440;-2.574;2023-06-22T07:30:08;0.00;;;0.00;;
20842;SDS011;26719;51.440;-2.574;2023-06-22T07:32:34;0.00;;;0.00;;
20842;SDS011;26719;51.440;-2.574;2023-06-22T07:35:00;0.00;;;0.00;;
20842;SDS011;26719;51.440;-2.574;2023-06-22T07:37:27;0.00;;;0.00;;
20842;SDS011;26719;51.440;-2.574;2023-06-22T07:39:54;0.03;;;0.03;;
20842;SDS011;26719;51.440;-2.574;2023-06-22T07:42:26;0.00;;;0.00;;
20842;SDS011;26719;51.440;-2.574;2023-06-22T07:44:52;0.00;;;0.00;;
20842;SDS011;26719;51.440;-2.574;2023-06-22T07:47:18;0.00;;;0.00;;
20842;SDS011;26719;51.440;-2.574;2023-06-22T07:49:44;0.10;;;0.10;;
20842;SDS011;26719;51.440;-2.574;2023-06-22T07:52:10;0.00;;;0.00;;
20842;SDS011;26719;51.440;-2.574;2023-06-22T07:54:37;0.00;;;0.00;;
20842;SDS011;26719;51.440;-2.574;2023-06-22T07:57:03;0.00;;;0.00;;
20842;SDS011;26719;51.440;-2.574;2023-06-22T07:59:29;0.00;;;0.00;;
20842;SDS011;26719;51.440;-2.574;2023-06-22T08:01:55;0.00;;;0.00;;
20842;SDS011;26719;51.440;-2.574;2023-06-22T08:04:21;0.00;;;0.00;;
20842;SDS011;26719;51.440;-2.574;2023-06-22T08:06:47;0.00;;;0.00;;
20842;SDS011;26719;51.440;-2.574;2023-06-22T08:09:14;0.00;;;0.00;;
20842;SDS011;26719;51.440;-2.574;2023-06-22T08:11:40;0.00;;;0.00;;
20842;SDS011;26719;51.440;-2.574;2023-06-22T08:14:06;0.00;;;0.00;;
20842;SDS011;26719;51.440;-2.574;2023-06-22T08:16:32;0.00;;;0.00;;
20842;SDS011;26719;51.440;-2.574;2023-06-22T08:18:58;0.03;;;0.03;;
20842;SDS011;26719;51.440;-2.574;2023-06-22T08:21:24;0.00;;;0.00;;
20842;SDS011;26719;51.440;-2.574;2023-06-22T08:23:50;0.10;;;0.10;;
20842;SDS011;26719;51.440;-2.574;2023-06-22T08:26:16;0.00;;;0.00;;
20842;SDS011;26719;51.440;-2.574;2023-06-22T08:28:42;0.00;;;0.00;;
20842;SDS011;26719;51.440;-2.574;2023-06-22T08:31:08;0.00;;;0.00;;
20842;SDS011;26719;51.440;-2.574;2023-06-22T08:33:40;0.00;;;0.00;;
20842;SDS011;26719;51.440;-2.574;2023-06-22T08:36:06;0.10;;;0.10;;
20842;SDS011;26719;51.440;-2.574;2023-06-22T08:38:33;0.00;;;0.00;;
20842;SDS011;26719;51.440;-2.574;2023-06-22T08:40:59;0.00;;;0.00;;
20842;SDS011;26719;51.440;-2.574;2023-06-22T08:43:26;0.10;;;0.10;;
20842;SDS011;26719;51.440;-2.574;2023-06-22T08:45:52;0.00;;;0.00;;
20842;SDS011;26719;51.440;-2.574;2023-06-22T08:48:18;0.00;;;0.00;;
20842;SDS011;26719;51.440;-2.574;2023-06-22T08:50:44;0.10;;;0.10;;
20842;SDS011;26719;51.440;-2.574;2023-06-22T08:53:10;0.10;;;0.10;;
20842;SDS011;26719;51.440;-2.574;2023-06-22T08:55:36;0.03;;;0.03;;
20842;SDS011;26719;51.440;-2.574;2023-06-22T08:58:02;0.00;;;0.00;;
20842;SDS011;26719;51.440;-2.574;2023-06-22T09:00:28;0.00;;;0.00;;
20842;SDS011;26719;51.440;-2.574;2023-06-22T09:02:59;0.00;;;0.00;;
20842;SDS011;26719;51.440;-2.574;2023-06-22T09:05:25;0.00;;;0.00;;
20842;SDS011;26719;51.440;-2.574;2023-06-22T09:07:51;0.00;;;0.00;;
20842;SDS011;26719;51.440;-2.574;2023-06-22T09:10:19;0.00;;;0.00;;
20842;SDS011;26719;51.440;-2.574;2023-06-22T09:12:46;0.00;;;0.00;;
20842;SDS011;26719;51.440;-2.574;2023-06-22T09:15:12;0.00;;;0.00;;
20842;SDS011;26719;51.440;-2.574;2023-06-22T09:17:38;0.00;;;0.00;;
20842;SDS011;26719;51.440;-2.574;2023-06-22T09:20:04;0.00;;;0.00;;
20842;SDS011;26719;51.440;-2.574;2023-06-22T09:22:31;0.10;;;0.10;;
20842;SDS011;26719;51.440;-2.574;2023-06-22T09:24:57;0.10;;;0.10;;
20842;SDS011;26719;51.440;-2.574;2023-06-22T09:27:24;0.10;;;0.10;;
20842;SDS011;26719;51.440;-2.574;2023-06-22T09:29:50;0.10;;;0.10;;
20842;SDS011;26719;51.440;-2.574;2023-06-22T09:32:16;0.20;;;0.20;;
20842;SDS011;26719;51.440;-2.574;2023-06-22T09:34:42;0.10;;;0.10;;
20842;SDS011;26719;51.440;-2.574;2023-06-22T09:37:08;0.17;;;0.17;;
20842;SDS011;26719;51.440;-2.574;2023-06-22T09:39:34;0.10;;;0.10;;
20842;SDS011;26719;51.440;-2.574;2023-06-22T09:42:01;0.10;;;0.10;;
20842;SDS011;26719;51.440;-2.574;2023-06-22T09:44:27;0.10;;;0.10;;
20842;SDS011;26719;51.440;-2.574;2023-06-22T09:46:53;0.10;;;0.10;;
20842;SDS011;26719;51.440;-2.574;2023-06-22T09:49:20;0.10;;;0.10;;
20842;SDS011;26719;51.440;-2.574;2023-06-22T09:51:46;0.10;;;0.10;;
20842;SDS011;26719;51.440;-2.574;2023-06-22T09:54:12;0.10;;;0.10;;
20842;SDS011;26719;51.440;-2.574;2023-06-22T09:56:38;0.10;;;0.10;;
20842;SDS011;26719;51.440;-2.574;2023-06-22T09:59:04;0.10;;;0.10;;
20842;SDS011;26719;51.440;-2.574;2023-06-22T10:01:30;0.10;;;0.10;;
20842;SDS011;26719;51.440;-2.574;2023-06-22T10:03:56;0.10;;;0.10;;
20842;SDS011;26719;51.440;-2.574;2023-06-22T10:06:22;0.10;;;0.10;;
20842;SDS011;26719;51.440;-2.574;2023-06-22T10:08:50;0.20;;;0.20;;
20842;SDS011;26719;51.440;-2.574;2023-06-22T10:11:16;0.20;;;0.20;;
20842;SDS011;26719;51.440;-2.574;2023-06-22T10:13:42;0.10;;;0.10;;
20842;SDS011;26719;51.440;-2.574;2023-06-22T10:16:08;0.10;;;0.10;;
20842;SDS011;26719;51.440;-2.574;2023-06-22T10:18:34;0.10;;;0.10;;
20842;SDS011;26719;51.440;-2.574;2023-06-22T10:21:00;0.20;;;0.20;;
20842;SDS011;26719;51.440;-2.574;2023-06-22T10:23:26;0.10;;;0.10;;
20842;SDS011;26719;51.440;-2.574;2023-06-22T10:25:52;0.10;;;0.10;;
20842;SDS011;26719;51.440;-2.574;2023-06-22T10:28:18;0.10;;;0.10;;
20842;SDS011;26719;51.440;-2.574;2023-06-22T10:30:44;0.10;;;0.10;;
20842;SDS011;26719;51.440;-2.574;2023-06-22T10:33:11;0.20;;;0.20;;
20842;SDS011;26719;51.440;-2.574;2023-06-22T10:35:37;0.10;;;0.10;;
20842;SDS011;26719;51.440;-2.574;2023-06-22T10:38:03;0.10;;;0.10;;
20842;SDS011;26719;51.440;-2.574;2023-06-22T10:40:29;0.20;;;0.20;;
20842;SDS011;26719;51.440;-2.574;2023-06-22T10:42:55;0.20;;;0.20;;
20842;SDS011;26719;51.440;-2.574;2023-06-22T10:45:22;0.17;;;0.17;;
20842;SDS011;26719;51.440;-2.574;2023-06-22T10:47:48;0.10;;;0.10;;
20842;SDS011;26719;51.440;-2.574;2023-06-22T10:50:14;0.10;;;0.10;;
20842;SDS011;26719;51.440;-2.574;2023-06-22T10:52:40;0.20;;;0.20;;
20842;SDS011;26719;51.440;-2.574;2023-06-22T10:55:07;0.10;;;0.10;;
20842;SDS011;26719;51.440;-2.574;2023-06-22T10:57:33;0.10;;;0.10;;
20842;SDS011;26719;51.440;-2.574;2023-06-22T10:59:59;0.10;;;0.10;;
20842;SDS011;26719;51.440;-2.574;2023-06-22T11:02:25;0.10;;;0.10;;
20842;SDS011;26719;51.440;-2.574;2023-06-22T11:04:53;0.10;;;0.10;;
20842;SDS011;26719;51.440;-2.574;2023-06-22T11:07:19;0.10;;;0.10;;
20842;SDS011;26719;51.440;-2.574;2023-06-22T11:09:45;0.20;;;0.20;;
20842;SDS011;26719;51.440;-2.574;2023-06-22T11:12:11;0.10;;;0.10;;
20842;SDS011;26719;51.440;-2.574;2023-06-22T11:14:38;0.10;;;0.10;;
20842;SDS011;26719;51.440;-2.574;2023-06-22T11:17:04;0.20;;;0.20;;
20842;SDS011;26719;51.440;-2.574;2023-06-22T11:19:31;0.17;;;0.17;;
20842;SDS011;26719;51.440;-2.574;2023-06-22T11:21:57;0.20;;;0.20;;
20842;SDS011;26719;51.440;-2.574;2023-06-22T11:24:23;0.20;;;0.20;;
20842;SDS011;26719;51.440;-2.574;2023-06-22T11:26:49;0.20;;;0.20;;
20842;SDS011;26719;51.440;-2.574;2023-06-22T11:29:15;0.25;;;0.25;;
20842;SDS011;26719;51.440;-2.574;2023-06-22T11:31:41;0.30;;;0.30;;
20842;SDS011;26719;51.440;-2.574;2023-06-22T11:34:08;0.20;;;0.20;;
20842;SDS011;26719;51.440;-2.574;2023-06-22T11:36:34;0.20;;;0.20;;
20842;SDS011;26719;51.440;-2.574;2023-06-22T11:39:01;0.30;;;0.30;;
20842;SDS011;26719;51.440;-2.574;2023-06-22T11:41:27;0.30;;;0.30;;
20842;SDS011;26719;51.440;-2.574;2023-06-22T11:43:53;0.30;;;0.30;;
20842;SDS011;26719;51.440;-2.574;2023-06-22T11:46:19;0.28;;;0.28;;
20842;SDS011;26719;51.440;-2.574;2023-06-22T11:48:45;0.30;;;0.30;;
20842;SDS011;26719;51.440;-2.574;2023-06-22T11:51:11;0.30;;;0.30;;
20842;SDS011;26719;51.440;-2.574;2023-06-22T11:53:37;0.30;;;0.30;;
20842;SDS011;26719;51.440;-2.574;2023-06-22T11:56:03;0.30;;;0.30;;
20842;SDS011;26719;51.440;-2.574;2023-06-22T11:58:29;0.30;;;0.30;;
20842;SDS011;26719;51.440;-2.574;2023-06-22T12:00:55;0.30;;;0.30;;
20842;SDS011;26719;51.440;-2.574;2023-06-22T12:03:21;0.30;;;0.30;;
20842;SDS011;26719;51.440;-2.574;2023-06-22T12:05:47;0.30;;;0.30;;
20842;SDS011;26719;51.440;-2.574;2023-06-22T12:08:13;0.40;;;0.40;;
20842;SDS011;26719;51.440;-2.574;2023-06-22T12:10:39;0.32;;;0.32;;
20842;SDS011;26719;51.440;-2.574;2023-06-22T12:13:07;0.30;;;0.30;;
20842;SDS011;26719;51.440;-2.574;2023-06-22T12:15:33;0.30;;;0.30;;
20842;SDS011;26719;51.440;-2.574;2023-06-22T12:17:59;0.30;;;0.30;;
20842;SDS011;26719;51.440;-2.574;2023-06-22T12:20:26;0.28;;;0.28;;
20842;SDS011;26719;51.440;-2.574;2023-06-22T12:22:52;0.40;;;0.40;;
20842;SDS011;26719;51.440;-2.574;2023-06-22T12:25:20;0.40;;;0.40;;
20842;SDS011;26719;51.440;-2.574;2023-06-22T12:27:46;0.40;;;0.40;;
20842;SDS011;26719;51.440;-2.574;2023-06-22T12:30:12;0.35;;;0.35;;
20842;SDS011;26719;51.440;-2.574;2023-06-22T12:32:38;0.30;;;0.30;;
20842;SDS011;26719;51.440;-2.574;2023-06-22T12:35:04;0.30;;;0.30;;
20842;SDS011;26719;51.440;-2.574;2023-06-22T12:37:32;0.30;;;0.30;;
20842;SDS011;26719;51.440;-2.574;2023-06-22T12:39:58;0.40;;;0.40;;
20842;SDS011;26719;51.440;-2.574;2023-06-22T12:42:24;0.30;;;0.30;;
20842;SDS011;26719;51.440;-2.574;2023-06-22T12:44:53;0.30;;;0.30;;
20842;SDS011;26719;51.440;-2.574;2023-06-22T12:47:19;0.40;;;0.40;;
20842;SDS011;26719;51.440;-2.574;2023-06-22T12:49:45;0.40;;;0.40;;
20842;SDS011;26719;51.440;-2.574;2023-06-22T12:52:11;0.40;;;0.40;;
20842;SDS011;26719;51.440;-2.574;2023-06-22T12:54:37;0.40;;;0.40;;
20842;SDS011;26719;51.440;-2.574;2023-06-22T12:57:03;0.40;;;0.40;;
20842;SDS011;26719;51.440;-2.574;2023-06-22T12:59:29;0.40;;;0.40;;
20842;SDS011;26719;51.440;-2.574;2023-06-22T13:01:55;0.40;;;0.40;;
20842;SDS011;26719;51.440;-2.574;2023-06-22T13:04:21;0.40;;;0.40;;
20842;SDS011;26719;51.440;-2.574;2023-06-22T13:06:47;0.30;;;0.30;;
20842;SDS011;26719;51.440;-2.574;2023-06-22T13:09:14;0.30;;;0.30;;
20842;SDS011;26719;51.440;-2.574;2023-06-22T13:11:40;0.40;;;0.40;;
20842;SDS011;26719;51.440;-2.574;2023-06-22T13:14:06;0.30;;;0.30;;
20842;SDS011;26719;51.440;-2.574;2023-06-22T13:16:33;0.50;;;0.50;;
20842;SDS011;26719;51.440;-2.574;2023-06-22T13:18:59;0.50;;;0.50;;
20842;SDS011;26719;51.440;-2.574;2023-06-22T13:21:25;0.30;;;0.30;;
20842;SDS011;26719;51.440;-2.574;2023-06-22T13:23:51;0.40;;;0.40;;
20842;SDS011;26719;51.440;-2.574;2023-06-22T13:26:17;0.43;;;0.43;;
20842;SDS011;26719;51.440;-2.574;2023-06-22T13:28:43;0.40;;;0.40;;
20842;SDS011;26719;51.440;-2.574;2023-06-22T13:31:09;0.52;;;0.52;;
20842;SDS011;26719;51.440;-2.574;2023-06-22T13:33:35;0.40;;;0.40;;
20842;SDS011;26719;51.440;-2.574;2023-06-22T13:36:01;0.40;;;0.40;;
20842;SDS011;26719;51.440;-2.574;2023-06-22T13:38:28;0.40;;;0.40;;
20842;SDS011;26719;51.440;-2.574;2023-06-22T13:40:55;0.40;;;0.40;;
20842;SDS011;26719;51.440;-2.574;2023-06-22T13:43:23;0.40;;;0.40;;
20842;SDS011;26719;51.440;-2.574;2023-06-22T13:45:49;0.40;;;0.40;;
20842;SDS011;26719;51.440;-2.574;2023-06-22T13:48:15;0.40;;;0.40;;
20842;SDS011;26719;51.440;-2.574;2023-06-22T13:50:43;0.40;;;0.40;;
20842;SDS011;26719;51.440;-2.574;2023-06-22T13:53:09;0.40;;;0.40;;
20842;SDS011;26719;51.440;-2.574;2023-06-22T13:55:35;0.47;;;0.47;;
20842;SDS011;26719;51.440;-2.574;2023-06-22T13:58:01;0.30;;;0.30;;
20842;SDS011;26719;51.440;-2.574;2023-06-22T14:00:27;0.43;;;0.43;;
20842;SDS011;26719;51.440;-2.574;2023-06-22T14:02:53;0.30;;;0.30;;
20842;SDS011;26719;51.440;-2.574;2023-06-22T14:05:19;0.38;;;0.38;;
20842;SDS011;26719;51.440;-2.574;2023-06-22T14:07:45;0.40;;;0.40;;
20842;SDS011;26719;51.440;-2.574;2023-06-22T14:10:11;0.35;;;0.35;;
20842;SDS011;26719;51.440;-2.574;2023-06-22T14:12:38;0.35;;;0.35;;
20842;SDS011;26719;51.440;-2.574;2023-06-22T14:15:04;0.40;;;0.40;;
20842;SDS011;26719;51.440;-2.574;2023-06-22T14:17:30;0.40;;;0.40;;
20842;SDS011;26719;51.440;-2.574;2023-06-22T14:19:56;0.35;;;0.35;;
20842;SDS011;26719;51.440;-2.574;2023-06-22T14:22:22;0.45;;;0.45;;
20842;SDS011;26719;51.440;-2.574;2023-06-22T14:24:48;0.40;;;0.40;;
20842;SDS011;26719;51.440;-2.574;2023-06-22T14:27:15;0.40;;;0.40;;
20842;SDS011;26719;51.440;-2.574;2023-06-22T14:29:41;0.50;;;0.50;;
20842;SDS011;26719;51.440;-2.574;2023-06-22T14:32:07;0.40;;;0.40;;
20842;SDS011;26719;51.440;-2.574;2023-06-22T14:34:34;0.40;;;0.40;;
20842;SDS011;26719;51.440;-2.574;2023-06-22T14:37:01;0.50;;;0.50;;
20842;SDS011;26719;51.440;-2.574;2023-06-22T14:39:27;0.40;;;0.40;;